Wetterdaten: Woche 20.06.16 - 26.06.16 (KW25)
Datum Zeit Temp. A. Feuchte A. Luftdruck Regen Wind Richtung Sonnenschein ET UV Solar Taupunkt Windchill Windben Empfang
20.06.2016 00:00 14,0 C 92 % 1019,8 hPa 0,0 l/m 8,0 km/h (2 Bft) W-SW 0,00 h 0,000 mm 0,0 UV-I 0 W/m 12,7 C 13,1 C 12,3 km/h (3 Bft) 99,50 %
20.06.2016 01:00 13,7 C 93 % 1019,7 hPa 0,0 l/m 8,3 km/h (2 Bft) SW 0,00 h 0,000 mm 0,0 UV-I 0 W/m 12,6 C 12,7 C 13,2 km/h (3 Bft) 98,03 %
20.06.2016 02:00 13,8 C 93 % 1019,3 hPa 0,0 l/m 10,8 km/h (2 Bft) SW 0,00 h 0,000 mm 0,0 UV-I 0 W/m 12,7 C 11,4 C 17,1 km/h (3 Bft) 98,72 %
20.06.2016 03:00 13,8 C 92 % 1019,2 hPa 0,0 l/m 10,1 km/h (2 Bft) W-SW 0,00 h 0,000 mm 0,0 UV-I 0 W/m 12,6 C 11,8 C 15,5 km/h (3 Bft) 97,82 %
20.06.2016 04:00 13,7 C 93 % 1019,0 hPa 0,0 l/m 8,9 km/h (2 Bft) W-SW 0,00 h 0,000 mm 0,0 UV-I 0 W/m 12,6 C 12,3 C 14,2 km/h (3 Bft) 99,45 %
20.06.2016 05:00 13,8 C 93 % 1019,1 hPa 0,0 l/m 7,7 km/h (2 Bft) W-SW 0,00 h 0,000 mm 0,0 UV-I 4 W/m 12,6 C 13,0 C 13,4 km/h (3 Bft) 97,89 %
20.06.2016 06:00 13,9 C 92 % 1019,1 hPa 0,0 l/m 8,8 km/h (2 Bft) W-SW 0,00 h 0,000 mm 0,0 UV-I 25 W/m 12,7 C 12,6 C 14,1 km/h (3 Bft) 99,58 %
20.06.2016 07:00 14,2 C 92 % 1019,1 hPa 0,0 l/m 8,8 km/h (2 Bft) W-SW 0,00 h 0,025 mm 0,0 UV-I 61 W/m 12,9 C 12,9 C 14,9 km/h (3 Bft) 97,97 %
20.06.2016 08:00 14,4 C 91 % 1019,4 hPa 0,0 l/m 9,1 km/h (2 Bft) W 0,00 h 0,051 mm 0,0 UV-I 54 W/m 13,0 C 13,0 C 16,2 km/h (3 Bft) 98,94 %
20.06.2016 09:00 14,6 C 91 % 1019,7 hPa 0,0 l/m 9,5 km/h (2 Bft) W-SW 0,00 h 0,051 mm 0,5 UV-I 69 W/m 13,1 C 12,9 C 15,8 km/h (3 Bft) 97,38 %
20.06.2016 10:00 15,0 C 89 % 1019,9 hPa 0,0 l/m 11,3 km/h (2 Bft) W-SW 0,00 h 0,051 mm 0,5 UV-I 66 W/m 13,2 C 12,6 C 18,2 km/h (3 Bft) 99,59 %
20.06.2016 11:00 15,3 C 89 % 1020,3 hPa 0,0 l/m 11,4 km/h (2 Bft) W-SW 0,00 h 0,051 mm 1,1 UV-I 151 W/m 13,5 C 12,9 C 18,1 km/h (3 Bft) 97,16 %
20.06.2016 12:00 15,6 C 91 % 1020,3 hPa 0,2 l/m 10,9 km/h (2 Bft) W-SW 0,00 h 0,101 mm 1,6 UV-I 219 W/m 14,1 C 13,4 C 17,1 km/h (3 Bft) 98,92 %
20.06.2016 13:00 17,1 C 85 % 1019,9 hPa 0,0 l/m 9,8 km/h (2 Bft) W-SW 0,00 h 0,127 mm 2,0 UV-I 272 W/m 14,5 C 15,5 C 15,7 km/h (3 Bft) 98,07 %
20.06.2016 14:00 16,9 C 85 % 1019,5 hPa 0,2 l/m 5,4 km/h (1 Bft) W 0,00 h 0,153 mm 0,4 UV-I 53 W/m 14,4 C 16,6 C 9,5 km/h (2 Bft) 98,79 %
20.06.2016 15:00 16,9 C 88 % 1019,7 hPa 0,0 l/m 3,7 km/h (1 Bft) S-SO 0,00 h 0,050 mm 1,0 UV-I 144 W/m 14,9 C 16,8 C 7,2 km/h (2 Bft) 97,90 %
20.06.2016 16:00 16,3 C 87 % 1019,9 hPa 0,0 l/m 9,5 km/h (2 Bft) S-SW 0,00 h 0,077 mm 0,4 UV-I 56 W/m 14,2 C 14,9 C 14,6 km/h (3 Bft) 98,09 %
20.06.2016 17:00 15,8 C 90 % 1019,8 hPa 0,0 l/m 9,0 km/h (2 Bft) S 0,00 h 0,050 mm 0,8 UV-I 192 W/m 14,2 C 14,5 C 14,9 km/h (3 Bft) 98,02 %
20.06.2016 18:00 16,5 C 87 % 1019,6 hPa 0,2 l/m 8,7 km/h (2 Bft) S 0,03 h 0,102 mm 0,7 UV-I 140 W/m 14,3 C 15,4 C 14,2 km/h (3 Bft) 99,01 %
20.06.2016 19:00 16,4 C 85 % 1019,4 hPa 0,0 l/m 7,1 km/h (2 Bft) S 0,00 h 0,102 mm 0,0 UV-I 57 W/m 13,8 C 15,9 C 11,9 km/h (2 Bft) 97,75 %
20.06.2016 20:00 16,1 C 87 % 1019,3 hPa 0,0 l/m 4,4 km/h (1 Bft) S-SO 0,10 h 0,050 mm 0,0 UV-I 31 W/m 13,8 C 16,0 C 8,5 km/h (2 Bft) 99,38 %
20.06.2016 21:00 14,9 C 91 % 1019,6 hPa 0,0 l/m 2,8 km/h (1 Bft) S-SO 0,00 h 0,026 mm 0,0 UV-I 4 W/m 13,4 C 14,9 C 6,3 km/h (2 Bft) 97,89 %
20.06.2016 22:00 14,1 C 91 % 1019,5 hPa 0,0 l/m 1,2 km/h (1 Bft) SO 0,00 h 0,000 mm 0,0 UV-I 0 W/m 12,8 C 14,1 C 2,8 km/h (1 Bft) 99,05 %
20.06.2016 23:00 13,0 C 93 % 1019,5 hPa 0,0 l/m 1,8 km/h (1 Bft) O-NO 0,00 h 0,000 mm 0,0 UV-I 0 W/m 11,8 C 13,0 C 2,9 km/h (1 Bft) 97,79 %
21.06.2016 00:00 12,7 C 95 % 1019,7 hPa 0,0 l/m 2,4 km/h (1 Bft) O-NO 0,00 h 0,000 mm 0,0 UV-I 0 W/m 12,0 C 12,7 C 3,6 km/h (1 Bft) 99,42 %
21.06.2016 01:00 11,7 C 94 % 1019,7 hPa 0,0 l/m 1,5 km/h (1 Bft) S-SW 0,00 h 0,000 mm 0,0 UV-I 0 W/m 10,7 C 11,7 C 2,9 km/h (1 Bft) 97,33 %
21.06.2016 02:00 11,2 C 95 % 1019,6 hPa 0,0 l/m 2,0 km/h (1 Bft) S-SO 0,00 h 0,000 mm 0,0 UV-I 0 W/m 10,5 C 11,2 C 3,5 km/h (1 Bft) 99,13 %
21.06.2016 03:00 10,8 C 96 % 1019,7 hPa 0,0 l/m 1,6 km/h (1 Bft) W 0,00 h 0,000 mm 0,0 UV-I 0 W/m 10,1 C 10,8 C 2,9 km/h (1 Bft) 97,20 %
21.06.2016 04:00 10,7 C 96 % 1019,8 hPa 0,0 l/m 0,4 km/h (0 Bft) W 0,00 h 0,000 mm 0,0 UV-I 5 W/m 10,1 C 10,7 C 0,9 km/h (0 Bft) 99,58 %
21.06.2016 05:00 10,6 C 96 % 1020,0 hPa 0,0 l/m 1,2 km/h (1 Bft) W 0,03 h 0,000 mm 0,0 UV-I 15 W/m 10,0 C 10,6 C 2,5 km/h (1 Bft) 97,51 %
21.06.2016 06:00 11,4 C 97 % 1020,6 hPa 0,0 l/m 0,8 km/h (0 Bft) S 0,00 h 0,000 mm 0,0 UV-I 55 W/m 10,9 C 11,4 C 2,2 km/h (1 Bft) 98,63 %
21.06.2016 07:00 12,8 C 95 % 1021,1 hPa 0,0 l/m 0,9 km/h (0 Bft) S 0,00 h 0,025 mm 0,4 UV-I 86 W/m 12,0 C 12,8 C 2,2 km/h (1 Bft) 97,08 %
21.06.2016 08:00 14,5 C 92 % 1021,2 hPa 0,0 l/m 3,1 km/h (1 Bft) S-SO 0,30 h 0,051 mm 1,2 UV-I 257 W/m 13,1 C 14,5 C 6,4 km/h (2 Bft) 99,12 %
21.06.2016 09:00 17,6 C 81 % 1021,3 hPa 0,0 l/m 4,7 km/h (1 Bft) S-SW 0,83 h 0,153 mm 3,0 UV-I 486 W/m 14,2 C 17,4 C 9,1 km/h (2 Bft) 97,72 %
21.06.2016 10:00 19,8 C 72 % 1021,5 hPa 0,0 l/m 4,2 km/h (1 Bft) W-SW 1,00 h 0,279 mm 4,8 UV-I 752 W/m 14,5 C 19,8 C 8,4 km/h (2 Bft) 99,01 %
21.06.2016 11:00 20,8 C 68 % 1021,6 hPa 0,0 l/m 2,8 km/h (1 Bft) N-NW 0,90 h 0,457 mm 5,2 UV-I 729 W/m 14,6 C 20,8 C 6,8 km/h (2 Bft) 97,94 %
21.06.2016 12:00 21,0 C 68 % 1021,7 hPa 0,0 l/m 2,9 km/h (1 Bft) N-NO 0,60 h 0,432 mm 4,7 UV-I 576 W/m 14,8 C 21,0 C 6,7 km/h (2 Bft) 99,30 %
21.06.2016 13:00 21,0 C 70 % 1021,9 hPa 0,0 l/m 3,6 km/h (1 Bft) N 0,50 h 0,356 mm 3,8 UV-I 468 W/m 15,2 C 21,0 C 8,6 km/h (2 Bft) 97,86 %
21.06.2016 14:00 20,6 C 72 % 1022,1 hPa 0,0 l/m 3,4 km/h (1 Bft) N-NW 0,20 h 0,279 mm 3,1 UV-I 372 W/m 15,3 C 20,6 C 7,5 km/h (2 Bft) 98,62 %
21.06.2016 15:00 21,3 C 68 % 1022,1 hPa 0,0 l/m 3,2 km/h (1 Bft) N-NO 0,57 h 0,229 mm 3,9 UV-I 553 W/m 15,2 C 21,3 C 7,2 km/h (2 Bft) 98,02 %
21.06.2016 16:00 21,9 C 66 % 1022,0 hPa 0,0 l/m 2,4 km/h (1 Bft) N-NO 0,83 h 0,355 mm 2,9 UV-I 466 W/m 15,3 C 21,9 C 5,3 km/h (1 Bft) 98,93 %
21.06.2016 17:00 21,9 C 67 % 1021,9 hPa 0,0 l/m 1,7 km/h (1 Bft) N 0,37 h 0,280 mm 1,7 UV-I 295 W/m 15,4 C 21,9 C 4,1 km/h (1 Bft) 97,89 %
21.06.2016 18:00 21,7 C 68 % 1021,7 hPa 0,0 l/m 1,1 km/h (1 Bft) W-NW 0,07 h 0,177 mm 0,7 UV-I 179 W/m 15,5 C 21,7 C 2,8 km/h (1 Bft) 98,43 %
21.06.2016 19:00 22,0 C 66 % 1021,7 hPa 0,0 l/m 2,1 km/h (1 Bft) NO 0,53 h 0,127 mm 0,0 UV-I 169 W/m 15,2 C 22,0 C 3,7 km/h (1 Bft) 97,94 %
21.06.2016 20:00 20,3 C 75 % 1021,7 hPa 0,0 l/m 4,0 km/h (1 Bft) O-SO 0,17 h 0,102 mm 0,0 UV-I 28 W/m 15,7 C 20,3 C 6,0 km/h (2 Bft) 98,73 %
21.06.2016 21:00 18,7 C 82 % 1022,0 hPa 0,0 l/m 3,4 km/h (1 Bft) NO 0,00 h 0,025 mm 0,0 UV-I 5 W/m 15,5 C 18,7 C 4,9 km/h (1 Bft) 98,09 %
21.06.2016 22:00 17,2 C 87 % 1022,3 hPa 0,0 l/m 1,5 km/h (1 Bft) NO 0,00 h 0,026 mm 0,0 UV-I 0 W/m 15,0 C 17,2 C 3,0 km/h (1 Bft) 98,71 %
21.06.2016 23:00 16,0 C 91 % 1022,5 hPa 0,0 l/m 0,4 km/h (0 Bft) O 0,00 h 0,000 mm 0,0 UV-I 0 W/m 14,6 C 16,0 C 1,0 km/h (0 Bft) 98,29 %
22.06.2016 00:00 15,3 C 93 % 1022,7 hPa 0,0 l/m 0,6 km/h (0 Bft) O-NO 0,00 h 0,000 mm 0,0 UV-I 0 W/m 14,2 C 15,3 C 1,4 km/h (1 Bft) 99,13 %
22.06.2016 01:00 14,8 C 94 % 1022,9 hPa 0,0 l/m 0,7 km/h (0 Bft) O-NO 0,00 h 0,000 mm 0,0 UV-I 0 W/m 13,8 C 14,8 C 1,5 km/h (1 Bft) 98,01 %
22.06.2016 02:00 14,7 C 95 % 1022,9 hPa 0,0 l/m 0,8 km/h (0 Bft) O-NO 0,00 h 0,000 mm 0,0 UV-I 0 W/m 13,9 C 14,7 C 1,8 km/h (1 Bft) 99,08 %
22.06.2016 03:00 15,2 C 94 % 1023,1 hPa 0,0 l/m 2,4 km/h (1 Bft) O 0,00 h 0,000 mm 0,0 UV-I 0 W/m 14,3 C 15,2 C 3,9 km/h (1 Bft) 97,93 %
22.06.2016 04:00 15,6 C 94 % 1023,2 hPa 0,0 l/m 3,2 km/h (1 Bft) S 0,00 h 0,000 mm 0,0 UV-I 0 W/m 14,7 C 15,6 C 5,0 km/h (1 Bft) 98,98 %
22.06.2016 05:00 15,7 C 94 % 1023,4 hPa 0,0 l/m 2,1 km/h (1 Bft) S 0,00 h 0,000 mm 0,0 UV-I 9 W/m 14,7 C 15,7 C 3,7 km/h (1 Bft) 97,27 %
22.06.2016 06:00 16,1 C 93 % 1023,7 hPa 0,0 l/m 0,7 km/h (0 Bft) S 0,00 h 0,000 mm 0,0 UV-I 38 W/m 15,0 C 16,1 C 2,0 km/h (1 Bft) 98,86 %
22.06.2016 07:00 17,2 C 90 % 1023,9 hPa 0,0 l/m 0,6 km/h (0 Bft) S 0,27 h 0,025 mm 0,7 UV-I 162 W/m 15,6 C 17,2 C 1,8 km/h (1 Bft) 97,81 %
22.06.2016 08:00 18,4 C 87 % 1024,0 hPa 0,0 l/m 1,3 km/h (1 Bft) NO 0,00 h 0,102 mm 1,4 UV-I 231 W/m 16,2 C 18,4 C 3,1 km/h (1 Bft) 99,08 %
22.06.2016 09:00 20,2 C 81 % 1023,9 hPa 0,0 l/m 2,2 km/h (1 Bft) NO 0,93 h 0,127 mm 3,4 UV-I 495 W/m 16,8 C 20,2 C 4,6 km/h (1 Bft) 97,72 %
22.06.2016 10:00 22,2 C 73 % 1023,8 hPa 0,0 l/m 4,7 km/h (1 Bft) NO 1,00 h 0,305 mm 5,2 UV-I 709 W/m 17,2 C 22,1 C 8,5 km/h (2 Bft) 98,85 %
22.06.2016 11:00 23,6 C 66 % 1023,6 hPa 0,0 l/m 6,9 km/h (2 Bft) NO 1,00 h 0,432 mm 6,7 UV-I 807 W/m 16,9 C 23,3 C 12,3 km/h (3 Bft) 97,89 %
22.06.2016 12:00 24,5 C 64 % 1023,1 hPa 0,0 l/m 7,0 km/h (2 Bft) NO 1,00 h 0,533 mm 7,7 UV-I 862 W/m 17,3 C 24,2 C 12,3 km/h (3 Bft) 98,95 %
22.06.2016 13:00 25,4 C 59 % 1022,8 hPa 0,0 l/m 5,9 km/h (2 Bft) NO 1,00 h 0,559 mm 7,7 UV-I 880 W/m 16,9 C 25,2 C 11,2 km/h (2 Bft) 98,58 %
22.06.2016 14:00 26,1 C 57 % 1022,5 hPa 0,0 l/m 5,4 km/h (1 Bft) NO 1,00 h 0,584 mm 6,9 UV-I 833 W/m 16,9 C 26,0 C 10,1 km/h (2 Bft) 98,35 %
22.06.2016 15:00 26,6 C 57 % 1022,0 hPa 0,0 l/m 3,3 km/h (1 Bft) NW 1,00 h 0,559 mm 5,5 UV-I 760 W/m 17,3 C 26,6 C 7,2 km/h (2 Bft) 98,36 %
22.06.2016 16:00 27,0 C 56 % 1021,7 hPa 0,0 l/m 3,7 km/h (1 Bft) N-NO 1,00 h 0,508 mm 3,7 UV-I 640 W/m 17,5 C 27,0 C 7,2 km/h (2 Bft) 98,10 %
22.06.2016 17:00 27,2 C 53 % 1021,4 hPa 0,0 l/m 2,9 km/h (1 Bft) NO 0,95 h 0,432 mm 2,1 UV-I 491 W/m 16,8 C 27,2 C 7,4 km/h (2 Bft) 98,46 %
22.06.2016 18:00 26,9 C 55 % 1021,1 hPa 0,0 l/m 2,7 km/h (1 Bft) N-NO 1,00 h 0,330 mm 0,9 UV-I 329 W/m 17,2 C 26,9 C 6,5 km/h (2 Bft) 99,42 %
22.06.2016 19:00 26,1 C 58 % 1021,2 hPa 0,0 l/m 3,9 km/h (1 Bft) NO 0,92 h 0,229 mm 0,4 UV-I 159 W/m 17,0 C 26,1 C 7,2 km/h (2 Bft) 98,98 %
22.06.2016 20:00 24,5 C 66 % 1021,2 hPa 0,0 l/m 0,6 km/h (0 Bft) N-NO 0,03 h 0,127 mm 0,0 UV-I 21 W/m 17,6 C 24,5 C 1,4 km/h (1 Bft) 99,35 %
22.06.2016 21:00 22,7 C 71 % 1021,4 hPa 0,0 l/m 0,5 km/h (0 Bft) O 0,00 h 0,025 mm 0,0 UV-I 6 W/m 17,1 C 22,7 C 1,3 km/h (1 Bft) 99,39 %
22.06.2016 22:00 20,8 C 77 % 1021,7 hPa 0,0 l/m 0,6 km/h (0 Bft) O 0,00 h 0,000 mm 0,0 UV-I 0 W/m 16,6 C 20,8 C 1,2 km/h (1 Bft) 97,71 %
22.06.2016 23:00 20,6 C 77 % 1021,8 hPa 0,0 l/m 5,3 km/h (1 Bft) O-NO 0,00 h 0,000 mm 0,0 UV-I 0 W/m 16,6 C 20,6 C 7,9 km/h (2 Bft) 99,50 %
23.06.2016 00:00 20,9 C 78 % 1021,9 hPa 0,0 l/m 4,3 km/h (1 Bft) O 0,00 h 0,000 mm 0,0 UV-I 0 W/m 16,9 C 20,8 C 7,6 km/h (2 Bft) 97,99 %
23.06.2016 01:00 19,5 C 83 % 1021,9 hPa 0,0 l/m 1,3 km/h (1 Bft) NO 0,00 h 0,025 mm 0,0 UV-I 0 W/m 16,6 C 19,5 C 1,9 km/h (1 Bft) 99,17 %
23.06.2016 02:00 18,4 C 87 % 1021,9 hPa 0,0 l/m 0,0 km/h (0 Bft) N 0,00 h 0,000 mm 0,0 UV-I 0 W/m 16,2 C 18,4 C 0,0 km/h (0 Bft) 98,11 %
23.06.2016 03:00 17,4 C 90 % 1021,8 hPa 0,0 l/m 0,0 km/h (0 Bft) N 0,00 h 0,000 mm 0,0 UV-I 0 W/m 15,7 C 17,4 C 0,0 km/h (0 Bft) 99,20 %
23.06.2016 04:00 16,7 C 92 % 1021,8 hPa 0,0 l/m 0,3 km/h (0 Bft) NO 0,00 h 0,000 mm 0,0 UV-I 0 W/m 15,3 C 16,7 C 0,8 km/h (0 Bft) 98,09 %
23.06.2016 05:00 16,1 C 91 % 1021,8 hPa 0,0 l/m 0,1 km/h (0 Bft) NO 0,00 h 0,000 mm 0,0 UV-I 14 W/m 14,7 C 16,1 C 0,4 km/h (0 Bft) 99,43 %
23.06.2016 06:00 16,5 C 94 % 1021,8 hPa 0,0 l/m 0,5 km/h (0 Bft) NO 0,00 h 0,000 mm 0,0 UV-I 66 W/m 15,5 C 16,5 C 1,4 km/h (1 Bft) 97,54 %
23.06.2016 07:00 19,6 C 87 % 1021,8 hPa 0,0 l/m 7,5 km/h (2 Bft) NO 1,00 h 0,026 mm 0,8 UV-I 249 W/m 17,3 C 19,1 C 11,4 km/h (2 Bft) 99,37 %
23.06.2016 08:00 21,4 C 80 % 1021,6 hPa 0,0 l/m 13,2 km/h (3 Bft) NO 1,00 h 0,152 mm 1,8 UV-I 432 W/m 17,8 C 19,4 C 19,2 km/h (3 Bft) 98,47 %
23.06.2016 09:00 23,2 C 73 % 1021,3 hPa 0,0 l/m 14,8 km/h (3 Bft) NO 1,00 h 0,305 mm 3,3 UV-I 524 W/m 18,1 C 21,2 C 21,9 km/h (4 Bft) 99,28 %
23.06.2016 10:00 25,1 C 64 % 1021,0 hPa 0,0 l/m 19,2 km/h (3 Bft) O-NO 1,00 h 0,381 mm 5,0 UV-I 722 W/m 17,8 C 22,9 C 28,1 km/h (4 Bft) 98,36 %
23.06.2016 11:00 26,4 C 60 % 1020,8 hPa 0,0 l/m 17,8 km/h (3 Bft) O-NO 1,00 h 0,559 mm 6,6 UV-I 821 W/m 18,0 C 24,7 C 26,3 km/h (4 Bft) 99,74 %
23.06.2016 12:00 27,6 C 57 % 1020,5 hPa 0,0 l/m 17,8 km/h (3 Bft) O-NO 1,00 h 0,635 mm 7,6 UV-I 878 W/m 18,2 C 26,3 C 25,8 km/h (4 Bft) 97,98 %
23.06.2016 13:00 28,6 C 54 % 1020,0 hPa 0,0 l/m 16,8 km/h (3 Bft) NO 1,00 h 0,686 mm 7,7 UV-I 884 W/m 18,3 C 27,5 C 24,7 km/h (4 Bft) 99,39 %
23.06.2016 14:00 29,3 C 50 % 1019,6 hPa 0,0 l/m 17,6 km/h (3 Bft) O-NO 1,00 h 0,711 mm 6,9 UV-I 847 W/m 17,7 C 28,4 C 25,3 km/h (4 Bft) 98,01 %
23.06.2016 15:00 29,8 C 48 % 1019,1 hPa 0,0 l/m 17,1 km/h (3 Bft) O-NO 1,00 h 0,711 mm 5,4 UV-I 764 W/m 17,4 C 29,0 C 25,0 km/h (4 Bft) 98,92 %
23.06.2016 16:00 29,9 C 48 % 1018,5 hPa 0,0 l/m 16,4 km/h (3 Bft) O-NO 1,00 h 0,660 mm 3,7 UV-I 637 W/m 17,6 C 29,2 C 23,5 km/h (4 Bft) 98,13 %
23.06.2016 17:00 29,7 C 50 % 1018,0 hPa 0,0 l/m 18,5 km/h (3 Bft) O-NO 1,00 h 0,559 mm 2,1 UV-I 487 W/m 18,2 C 28,8 C 26,8 km/h (4 Bft) 99,07 %
23.06.2016 18:00 29,0 C 53 % 1017,4 hPa 0,0 l/m 17,6 km/h (3 Bft) O-NO 1,00 h 0,483 mm 1,0 UV-I 326 W/m 18,6 C 28,0 C 25,3 km/h (4 Bft) 98,54 %
23.06.2016 19:00 28,0 C 58 % 1017,5 hPa 0,0 l/m 13,7 km/h (3 Bft) O-NO 0,93 h 0,355 mm 0,5 UV-I 158 W/m 18,9 C 27,1 C 20,3 km/h (4 Bft) 99,01 %
23.06.2016 20:00 26,2 C 62 % 1017,3 hPa 0,0 l/m 13,4 km/h (3 Bft) O-NO 0,03 h 0,204 mm 0,0 UV-I 33 W/m 18,3 C 25,0 C 19,5 km/h (3 Bft) 98,92 %
23.06.2016 21:00 24,2 C 69 % 1017,6 hPa 0,0 l/m 8,5 km/h (2 Bft) O-NO 0,00 h 0,101 mm 0,0 UV-I 6 W/m 18,1 C 23,7 C 13,4 km/h (3 Bft) 98,91 %
23.06.2016 22:00 22,7 C 74 % 1017,5 hPa 0,0 l/m 6,4 km/h (2 Bft) O-NO 0,00 h 0,051 mm 0,0 UV-I 0 W/m 17,9 C 22,6 C 9,6 km/h (2 Bft) 98,71 %
23.06.2016 23:00 21,9 C 77 % 1017,2 hPa 0,0 l/m 4,4 km/h (1 Bft) O-NO 0,00 h 0,025 mm 0,0 UV-I 0 W/m 17,7 C 21,9 C 6,3 km/h (2 Bft) 98,64 %
24.06.2016 00:00 21,5 C 78 % 1016,8 hPa 0,0 l/m 4,9 km/h (1 Bft) O-NO 0,00 h 0,000 mm 0,0 UV-I 0 W/m 17,4 C 21,5 C 8,0 km/h (2 Bft) 98,48 %
24.06.2016 01:00 20,8 C 80 % 1016,3 hPa 0,0 l/m 5,2 km/h (1 Bft) O-NO 0,00 h 0,025 mm 0,0 UV-I 0 W/m 17,2 C 20,8 C 7,7 km/h (2 Bft) 98,70 %
24.06.2016 02:00 19,7 C 84 % 1015,8 hPa 0,0 l/m 4,0 km/h (1 Bft) O-NO 0,00 h 0,026 mm 0,0 UV-I 0 W/m 17,0 C 19,7 C 5,9 km/h (2 Bft) 98,95 %
24.06.2016 03:00 19,3 C 86 % 1015,7 hPa 0,0 l/m 2,3 km/h (1 Bft) O-NO 0,00 h 0,025 mm 0,0 UV-I 0 W/m 16,9 C 19,3 C 3,9 km/h (1 Bft) 98,45 %
24.06.2016 04:00 17,9 C 90 % 1015,4 hPa 0,0 l/m 0,3 km/h (0 Bft) O-NO 0,00 h 0,000 mm 0,0 UV-I 0 W/m 16,2 C 17,9 C 0,6 km/h (0 Bft) 98,86 %
24.06.2016 05:00 17,2 C 92 % 1015,4 hPa 0,0 l/m 0,2 km/h (0 Bft) O-NO 0,03 h 0,000 mm 0,0 UV-I 16 W/m 15,9 C 17,2 C 0,9 km/h (0 Bft) 98,56 %
24.06.2016 06:00 18,4 C 92 % 1015,5 hPa 0,0 l/m 1,0 km/h (0 Bft) O-NO 0,07 h 0,000 mm 0,0 UV-I 72 W/m 17,0 C 18,4 C 2,3 km/h (1 Bft) 99,01 %
24.06.2016 07:00 21,0 C 84 % 1015,6 hPa 0,0 l/m 7,1 km/h (2 Bft) O-NO 1,00 h 0,051 mm 0,8 UV-I 250 W/m 18,2 C 20,7 C 11,0 km/h (2 Bft) 98,51 %
24.06.2016 08:00 22,7 C 78 % 1015,7 hPa 0,0 l/m 5,1 km/h (1 Bft) O-NO 1,00 h 0,152 mm 1,8 UV-I 421 W/m 18,8 C 22,6 C 9,1 km/h (2 Bft) 98,94 %
24.06.2016 09:00 24,4 C 75 % 1015,6 hPa 0,0 l/m 1,6 km/h (1 Bft) NO 1,00 h 0,280 mm 3,3 UV-I 513 W/m 19,6 C 24,4 C 3,4 km/h (1 Bft) 98,50 %
24.06.2016 10:00 26,0 C 71 % 1015,4 hPa 0,0 l/m 2,1 km/h (1 Bft) N-NO 1,00 h 0,330 mm 5,0 UV-I 703 W/m 20,4 C 26,0 C 4,1 km/h (1 Bft) 99,08 %
24.06.2016 11:00 27,6 C 65 % 1015,3 hPa 0,0 l/m 2,7 km/h (1 Bft) N-NO 1,00 h 0,457 mm 6,5 UV-I 796 W/m 20,4 C 27,6 C 5,0 km/h (1 Bft) 98,30 %
24.06.2016 12:00 29,0 C 59 % 1014,8 hPa 0,0 l/m 2,5 km/h (1 Bft) NW 1,00 h 0,534 mm 7,5 UV-I 860 W/m 20,2 C 29,0 C 5,6 km/h (1 Bft) 99,34 %
24.06.2016 13:00 29,8 C 58 % 1014,4 hPa 0,0 l/m 2,5 km/h (1 Bft) N-NO 1,00 h 0,584 mm 7,6 UV-I 869 W/m 20,7 C 29,8 C 6,0 km/h (2 Bft) 98,55 %
24.06.2016 14:00 30,8 C 50 % 1013,8 hPa 0,0 l/m 2,8 km/h (1 Bft) NW 1,00 h 0,584 mm 6,7 UV-I 827 W/m 19,3 C 30,8 C 6,1 km/h (2 Bft) 99,07 %
24.06.2016 15:00 31,7 C 46 % 1013,2 hPa 0,0 l/m 3,7 km/h (1 Bft) S-SO 1,00 h 0,584 mm 5,2 UV-I 745 W/m 18,6 C 31,7 C 7,0 km/h (2 Bft) 98,57 %
24.06.2016 16:00 32,0 C 46 % 1012,7 hPa 0,0 l/m 5,9 km/h (2 Bft) O-NO 1,00 h 0,534 mm 3,5 UV-I 616 W/m 18,8 C 31,9 C 10,4 km/h (2 Bft) 98,50 %
24.06.2016 17:00 31,9 C 45 % 1012,1 hPa 0,0 l/m 8,0 km/h (2 Bft) O-NO 1,00 h 0,482 mm 2,1 UV-I 472 W/m 18,6 C 31,9 C 13,4 km/h (3 Bft) 99,11 %
24.06.2016 18:00 31,6 C 44 % 1011,6 hPa 0,0 l/m 7,5 km/h (2 Bft) O-NO 1,00 h 0,407 mm 0,9 UV-I 318 W/m 17,9 C 31,5 C 12,4 km/h (3 Bft) 97,89 %
24.06.2016 19:00 30,8 C 47 % 1011,4 hPa 0,0 l/m 4,7 km/h (1 Bft) O-NO 0,93 h 0,304 mm 0,5 UV-I 160 W/m 18,0 C 30,8 C 7,5 km/h (2 Bft) 99,48 %
24.06.2016 20:00 28,9 C 51 % 1011,6 hPa 0,0 l/m 4,6 km/h (1 Bft) O 0,13 h 0,153 mm 0,0 UV-I 34 W/m 17,8 C 28,9 C 7,1 km/h (2 Bft) 98,17 %
24.06.2016 21:00 25,5 C 65 % 1011,5 hPa 0,0 l/m 1,8 km/h (1 Bft) O-SO 0,00 h 0,076 mm 0,0 UV-I 7 W/m 18,3 C 25,5 C 2,8 km/h (1 Bft) 99,44 %
24.06.2016 22:00 23,6 C 73 % 1011,1 hPa 0,0 l/m 0,0 km/h (0 Bft) N 0,00 h 0,025 mm 0,0 UV-I 0 W/m 18,5 C 23,6 C 0,1 km/h (0 Bft) 98,15 %
24.06.2016 23:00 22,7 C 75 % 1011,0 hPa 0,0 l/m 1,9 km/h (1 Bft) SO 0,00 h 0,000 mm 0,0 UV-I 0 W/m 18,1 C 22,7 C 3,3 km/h (1 Bft) 99,35 %
25.06.2016 00:00 21,5 C 81 % 1011,0 hPa 0,0 l/m 1,7 km/h (1 Bft) S-SW 0,00 h 0,000 mm 0,0 UV-I 0 W/m 18,1 C 21,5 C 3,1 km/h (1 Bft) 98,06 %
25.06.2016 01:00 20,8 C 83 % 1010,9 hPa 0,0 l/m 1,5 km/h (1 Bft) S-SO 0,00 h 0,000 mm 0,0 UV-I 0 W/m 17,9 C 20,8 C 2,8 km/h (1 Bft) 99,39 %
25.06.2016 02:00 20,1 C 86 % 1010,7 hPa 0,0 l/m 2,1 km/h (1 Bft) S 0,00 h 0,000 mm 0,0 UV-I 0 W/m 17,7 C 20,1 C 3,3 km/h (1 Bft) 97,72 %
25.06.2016 03:00 19,7 C 87 % 1010,3 hPa 0,0 l/m 1,3 km/h (1 Bft) S 0,00 h 0,000 mm 0,0 UV-I 0 W/m 17,6 C 19,7 C 2,7 km/h (1 Bft) 99,45 %
25.06.2016 04:00 19,4 C 88 % 1010,0 hPa 0,0 l/m 3,4 km/h (1 Bft) S 0,00 h 0,000 mm 0,0 UV-I 0 W/m 17,3 C 19,4 C 5,3 km/h (1 Bft) 97,79 %
25.06.2016 05:00 19,5 C 86 % 1009,9 hPa 0,0 l/m 3,0 km/h (1 Bft) S-SW 0,03 h 0,000 mm 0,0 UV-I 17 W/m 17,1 C 19,5 C 4,9 km/h (1 Bft) 99,36 %
25.06.2016 06:00 20,0 C 85 % 1009,4 hPa 0,0 l/m 2,3 km/h (1 Bft) S-SW 0,03 h 0,025 mm 0,0 UV-I 72 W/m 17,5 C 20,0 C 4,1 km/h (1 Bft) 98,06 %
25.06.2016 07:00 22,3 C 80 % 1009,5 hPa 0,0 l/m 3,5 km/h (1 Bft) SO 1,00 h 0,051 mm 0,8 UV-I 243 W/m 18,6 C 22,3 C 6,3 km/h (2 Bft) 99,17 %
25.06.2016 08:00 24,1 C 69 % 1009,7 hPa 0,0 l/m 2,8 km/h (1 Bft) W-SW 0,67 h 0,153 mm 1,6 UV-I 343 W/m 18,0 C 24,1 C 5,2 km/h (1 Bft) 98,17 %
25.06.2016 09:00 25,4 C 69 % 1009,6 hPa 0,0 l/m 2,4 km/h (1 Bft) N 1,00 h 0,228 mm 3,0 UV-I 501 W/m 19,3 C 25,4 C 5,3 km/h (1 Bft) 99,38 %
25.06.2016 10:00 26,7 C 67 % 1009,6 hPa 0,0 l/m 2,2 km/h (1 Bft) NW 1,00 h 0,330 mm 4,5 UV-I 689 W/m 20,1 C 26,7 C 5,1 km/h (1 Bft) 97,88 %
25.06.2016 11:00 28,2 C 62 % 1009,4 hPa 0,0 l/m 3,0 km/h (1 Bft) W 1,00 h 0,458 mm 5,9 UV-I 794 W/m 20,1 C 28,2 C 6,7 km/h (2 Bft) 99,54 %
25.06.2016 12:00 28,9 C 61 % 1009,0 hPa 0,0 l/m 2,8 km/h (1 Bft) N-NO 1,00 h 0,533 mm 6,6 UV-I 827 W/m 20,5 C 28,9 C 5,7 km/h (1 Bft) 98,07 %
25.06.2016 13:00 29,6 C 59 % 1008,2 hPa 0,0 l/m 3,2 km/h (1 Bft) N-NO 1,00 h 0,559 mm 6,6 UV-I 833 W/m 20,7 C 29,6 C 6,5 km/h (2 Bft) 98,86 %
25.06.2016 14:00 30,1 C 59 % 1007,2 hPa 0,0 l/m 3,6 km/h (1 Bft) N-NO 1,00 h 0,584 mm 6,0 UV-I 796 W/m 21,2 C 30,1 C 7,8 km/h (2 Bft) 99,20 %
25.06.2016 15:00 30,5 C 57 % 1006,5 hPa 0,0 l/m 3,0 km/h (1 Bft) N-NW 1,00 h 0,559 mm 4,7 UV-I 714 W/m 21,0 C 30,5 C 7,1 km/h (2 Bft) 98,39 %
25.06.2016 16:00 30,7 C 56 % 1006,0 hPa 0,0 l/m 2,1 km/h (1 Bft) N-NW 0,97 h 0,508 mm 3,1 UV-I 563 W/m 20,8 C 30,7 C 4,4 km/h (1 Bft) 99,45 %
25.06.2016 17:00 29,5 C 61 % 1005,1 hPa 0,0 l/m 0,9 km/h (0 Bft) N-NW 0,00 h 0,381 mm 1,0 UV-I 158 W/m 21,2 C 29,5 C 2,6 km/h (1 Bft) 98,65 %
25.06.2016 18:00 28,5 C 66 % 1004,7 hPa 0,0 l/m 0,7 km/h (0 Bft) N-NW 0,00 h 0,127 mm 0,5 UV-I 70 W/m 21,6 C 28,5 C 2,3 km/h (1 Bft) 98,77 %
25.06.2016 19:00 25,1 C 72 % 1006,6 hPa 0,0 l/m 21,0 km/h (4 Bft) W-SW 0,00 h 0,051 mm 0,0 UV-I 18 W/m 19,6 C 22,6 C 32,6 km/h (5 Bft) 99,16 %
25.06.2016 20:00 19,0 C 87 % 1010,9 hPa 3,0 l/m 11,1 km/h (2 Bft) W-SW 0,00 h 0,101 mm 0,0 UV-I 0 W/m 16,8 C 17,4 C 16,9 km/h (3 Bft) 97,81 %
25.06.2016 21:00 18,1 C 91 % 1012,7 hPa 1,2 l/m 9,4 km/h (2 Bft) W-SW 0,00 h 0,026 mm 0,0 UV-I 0 W/m 16,7 C 16,5 C 13,2 km/h (3 Bft) 99,15 %
25.06.2016 22:00 17,7 C 92 % 1013,2 hPa 0,0 l/m 9,6 km/h (2 Bft) W-SW 0,00 h 0,025 mm 0,0 UV-I 0 W/m 16,4 C 16,3 C 15,0 km/h (3 Bft) 97,96 %
25.06.2016 23:00 17,6 C 91 % 1013,1 hPa 0,0 l/m 10,3 km/h (2 Bft) S-SW 0,00 h 0,000 mm 0,0 UV-I 0 W/m 16,2 C 16,0 C 17,9 km/h (3 Bft) 99,44 %
26.06.2016 00:00 17,9 C 90 % 1013,3 hPa 0,0 l/m 13,8 km/h (3 Bft) SW 0,00 h 0,000 mm 0,0 UV-I 0 W/m 16,2 C 15,2 C 20,9 km/h (4 Bft) 98,06 %
26.06.2016 01:00 18,0 C 91 % 1013,7 hPa 0,0 l/m 12,7 km/h (3 Bft) SW 0,00 h 0,025 mm 0,0 UV-I 0 W/m 16,4 C 15,5 C 18,8 km/h (3 Bft) 99,02 %
26.06.2016 02:00 17,8 C 91 % 1013,8 hPa 0,0 l/m 9,7 km/h (2 Bft) SW 0,00 h 0,026 mm 0,0 UV-I 0 W/m 16,3 C 16,4 C 15,8 km/h (3 Bft) 98,25 %
26.06.2016 03:00 17,7 C 91 % 1014,0 hPa 0,0 l/m 11,1 km/h (2 Bft) W-SW 0,00 h 0,025 mm 0,0 UV-I 0 W/m 16,1 C 15,7 C 16,4 km/h (3 Bft) 99,40 %
26.06.2016 04:00 17,6 C 91 % 1014,6 hPa 0,0 l/m 6,5 km/h (2 Bft) W-SW 0,00 h 0,026 mm 0,0 UV-I 0 W/m 16,2 C 17,2 C 11,0 km/h (2 Bft) 97,76 %
26.06.2016 05:00 17,3 C 89 % 1014,9 hPa 0,0 l/m 6,8 km/h (2 Bft) W-SW 0,00 h 0,000 mm 0,0 UV-I 8 W/m 15,5 C 16,8 C 10,8 km/h (2 Bft) 99,67 %
26.06.2016 06:00 16,8 C 90 % 1015,4 hPa 0,2 l/m 9,8 km/h (2 Bft) W-SW 0,00 h 0,025 mm 0,0 UV-I 44 W/m 15,2 C 15,3 C 15,3 km/h (3 Bft) 98,07 %
26.06.2016 07:00 16,7 C 90 % 1015,7 hPa 0,0 l/m 5,5 km/h (1 Bft) W-SW 0,00 h 0,025 mm 0,0 UV-I 71 W/m 15,1 C 16,6 C 9,8 km/h (2 Bft) 99,41 %
26.06.2016 08:00 16,9 C 89 % 1016,1 hPa 0,0 l/m 4,4 km/h (1 Bft) W-SW 0,00 h 0,051 mm 0,8 UV-I 135 W/m 15,1 C 16,9 C 8,8 km/h (2 Bft) 97,93 %
26.06.2016 09:00 18,0 C 86 % 1016,1 hPa 0,0 l/m 3,7 km/h (1 Bft) W-SW 0,23 h 0,076 mm 2,0 UV-I 315 W/m 15,7 C 18,0 C 7,9 km/h (2 Bft) 99,38 %
26.06.2016 10:00 19,1 C 81 % 1016,1 hPa 0,0 l/m 4,3 km/h (1 Bft) W 0,50 h 0,178 mm 3,6 UV-I 460 W/m 15,7 C 19,0 C 9,0 km/h (2 Bft) 98,47 %
26.06.2016 11:00 20,3 C 74 % 1016,1 hPa 0,0 l/m 5,4 km/h (1 Bft) W-SW 0,87 h 0,305 mm 5,5 UV-I 712 W/m 15,5 C 20,2 C 11,0 km/h (2 Bft) 99,24 %
26.06.2016 12:00 21,4 C 69 % 1016,1 hPa 0,0 l/m 4,6 km/h (1 Bft) W-NW 1,00 h 0,406 mm 6,4 UV-I 736 W/m 15,5 C 21,3 C 9,8 km/h (2 Bft) 98,01 %
26.06.2016 13:00 21,9 C 66 % 1015,8 hPa 0,0 l/m 4,1 km/h (1 Bft) NW 0,83 h 0,483 mm 5,0 UV-I 560 W/m 15,3 C 21,9 C 9,8 km/h (2 Bft) 99,41 %
26.06.2016 14:00 21,5 C 67 % 1015,4 hPa 0,0 l/m 3,2 km/h (1 Bft) NW 0,23 h 0,356 mm 3,4 UV-I 402 W/m 15,2 C 21,5 C 7,4 km/h (2 Bft) 98,07 %
26.06.2016 15:00 22,0 C 67 % 1015,0 hPa 0,0 l/m 2,3 km/h (1 Bft) N-NW 0,37 h 0,254 mm 3,2 UV-I 427 W/m 15,6 C 22,0 C 5,3 km/h (1 Bft) 99,53 %
26.06.2016 16:00 22,4 C 64 % 1014,5 hPa 0,0 l/m 4,5 km/h (1 Bft) W-SW 0,27 h 0,279 mm 2,2 UV-I 325 W/m 15,3 C 22,3 C 8,1 km/h (2 Bft) 97,72 %
26.06.2016 17:00 21,3 C 70 % 1014,6 hPa 0,0 l/m 7,4 km/h (2 Bft) SW 0,00 h 0,229 mm 0,9 UV-I 67 W/m 15,5 C 20,9 C 11,8 km/h (2 Bft) 99,39 %
26.06.2016 18:00 19,6 C 81 % 1014,8 hPa 0,6 l/m 7,6 km/h (2 Bft) W-SW 0,10 h 0,076 mm 0,0 UV-I 74 W/m 16,2 C 19,0 C 12,3 km/h (3 Bft) 98,14 %
26.06.2016 19:00 18,7 C 83 % 1015,0 hPa 0,0 l/m 7,2 km/h (2 Bft) W-SW 0,00 h 0,076 mm 0,0 UV-I 56 W/m 15,8 C 18,2 C 12,2 km/h (3 Bft) 99,55 %
26.06.2016 20:00 18,4 C 82 % 1015,4 hPa 0,0 l/m 8,4 km/h (2 Bft) W-SW 0,00 h 0,051 mm 0,0 UV-I 15 W/m 15,3 C 17,5 C 13,9 km/h (3 Bft) 97,90 %
26.06.2016 21:00 17,8 C 77 % 1016,1 hPa 0,0 l/m 10,2 km/h (2 Bft) W-SW 0,00 h 0,025 mm 0,0 UV-I 0 W/m 13,7 C 16,2 C 16,9 km/h (3 Bft) 99,60 %
26.06.2016 22:00 17,0 C 80 % 1016,7 hPa 1,6 l/m 12,2 km/h (2 Bft) W-SW 0,00 h 0,026 mm 0,0 UV-I 0 W/m 13,5 C 14,6 C 18,8 km/h (3 Bft) 98,06 %
26.06.2016 23:00 14,7 C 92 % 1017,3 hPa 6,4 l/m 11,9 km/h (2 Bft) W-SW 0,00 h 0,025 mm 0,0 UV-I 0 W/m 13,4 C 12,0 C 18,1 km/h (3 Bft) 99,10 %
Min-Datum _ 21.06.16 24.06.16 25.06.16 - 20.06.16 - - - - - 21.06.16 20.06.16 20.06.16 21.06.16
_ Min-Zeit 05:12 18:54 18:08 - 22:18 - - - - - 05:12 02:14 22:18 17:22
Minimum _ 10,5 C 42 % 1004,4 hPa - 0,0 km/h (0 Bft) - - - - - 9,9 C 9,8 C 0,0 km/h (0 Bft) 89,36 %
Max-Datum _ 24.06.16 21.06.16 22.06.16 26.06.16 25.06.16 - 22.06.16 23.06.16 22.06.16 26.06.16 25.06.16 24.06.16 25.06.16 20.06.16
_ Max-Zeit 16:36 05:58 08:30 23:30 19:36 - 17:05 14:00 13:12 12:42 17:46 16:40 19:36 00:00
Maximum _ 32,2 C 97 % 1024,1 hPa 6,4 l/m 50,9 km/h
W-SW (7 Bft)
- 0,08 h 0,711 mm 8,1 UV-I 1120 W/m 23,1 C 32,2 C 75,6 km/h
W-SW (9 Bft)
100,00 %
Durchschnitt _ 20,7 C 77 % 1017,4 hPa #13,6 l/m 5,5 km/h (1 Bft) O-NO #58:22 h #29,286 mm 3,3 UV-I 351 W/m 16,1 C 20,2 C 9,2 km/h (2 Bft) 98,61 %